sensor_id;sensor_type;location;lat;lon;timestamp;P1;durP1;ratioP1;P2;durP2;ratioP2
14663;SDS011;7419;52.184;5.944;2023-02-03T00:03:17;5.29;;;1.27;;
14663;SDS011;7419;52.184;5.944;2023-02-03T00:03:17;8.84;;;1.46;;
14663;SDS011;7419;52.184;5.944;2023-02-03T00:03:17;4.28;;;1.45;;
14663;SDS011;7419;52.184;5.944;2023-02-03T00:04:12;5.11;;;1.35;;
14663;SDS011;7419;52.184;5.944;2023-02-03T00:05:12;3.84;;;1.20;;
14663;SDS011;7419;52.184;5.944;2023-02-03T00:06:12;1.91;;;1.30;;
14663;SDS011;7419;52.184;5.944;2023-02-03T00:07:12;1.59;;;1.06;;
14663;SDS011;7419;52.184;5.944;2023-02-03T00:08:13;8.31;;;1.13;;
14663;SDS011;7419;52.184;5.944;2023-02-03T00:09:13;2.39;;;1.16;;
14663;SDS011;7419;52.184;5.944;2023-02-03T00:10:13;2.92;;;1.26;;
14663;SDS011;7419;52.184;5.944;2023-02-03T00:11:13;6.94;;;1.51;;
14663;SDS011;7419;52.184;5.944;2023-02-03T00:12:13;5.04;;;1.28;;
14663;SDS011;7419;52.184;5.944;2023-02-03T00:13:13;6.72;;;1.40;;
14663;SDS011;7419;52.184;5.944;2023-02-03T00:14:13;3.79;;;1.65;;
14663;SDS011;7419;52.184;5.944;2023-02-03T00:15:13;7.50;;;1.27;;
14663;SDS011;7419;52.184;5.944;2023-02-03T00:16:13;7.87;;;1.47;;
14663;SDS011;7419;52.184;5.944;2023-02-03T00:17:13;2.97;;;1.28;;
14663;SDS011;7419;52.184;5.944;2023-02-03T00:18:13;5.49;;;1.64;;
14663;SDS011;7419;52.184;5.944;2023-02-03T00:19:13;3.39;;;1.46;;
14663;SDS011;7419;52.184;5.944;2023-02-03T00:20:13;1.68;;;1.27;;
14663;SDS011;7419;52.184;5.944;2023-02-03T00:21:13;2.77;;;1.02;;
14663;SDS011;7419;52.184;5.944;2023-02-03T00:22:13;5.78;;;1.13;;
14663;SDS011;7419;52.184;5.944;2023-02-03T00:23:13;6.87;;;1.60;;
14663;SDS011;7419;52.184;5.944;2023-02-03T00:24:13;2.02;;;1.51;;
14663;SDS011;7419;52.184;5.944;2023-02-03T00:25:13;3.27;;;1.33;;
14663;SDS011;7419;52.184;5.944;2023-02-03T00:26:14;1.92;;;1.21;;
14663;SDS011;7419;52.184;5.944;2023-02-03T00:27:14;2.00;;;1.23;;
14663;SDS011;7419;52.184;5.944;2023-02-03T00:28:14;3.84;;;1.12;;
14663;SDS011;7419;52.184;5.944;2023-02-03T00:29:14;2.68;;;0.80;;
14663;SDS011;7419;52.184;5.944;2023-02-03T00:30:14;1.64;;;0.98;;
14663;SDS011;7419;52.184;5.944;2023-02-03T00:31:15;6.17;;;1.49;;
14663;SDS011;7419;52.184;5.944;2023-02-03T00:32:14;4.96;;;1.65;;
14663;SDS011;7419;52.184;5.944;2023-02-03T00:33:14;3.87;;;1.66;;
14663;SDS011;7419;52.184;5.944;2023-02-03T00:34:14;2.13;;;1.20;;
14663;SDS011;7419;52.184;5.944;2023-02-03T00:35:14;1.26;;;0.85;;
14663;SDS011;7419;52.184;5.944;2023-02-03T00:36:14;5.17;;;1.39;;
14663;SDS011;7419;52.184;5.944;2023-02-03T00:37:14;3.00;;;1.67;;
14663;SDS011;7419;52.184;5.944;2023-02-03T00:38:14;3.41;;;1.56;;
14663;SDS011;7419;52.184;5.944;2023-02-03T00:39:15;2.51;;;1.22;;
14663;SDS011;7419;52.184;5.944;2023-02-03T00:40:14;2.37;;;1.15;;
14663;SDS011;7419;52.184;5.944;2023-02-03T00:41:14;3.21;;;0.91;;
14663;SDS011;7419;52.184;5.944;2023-02-03T00:42:14;4.37;;;1.13;;
14663;SDS011;7419;52.184;5.944;2023-02-03T00:43:15;2.92;;;1.34;;
14663;SDS011;7419;52.184;5.944;2023-02-03T00:44:15;5.66;;;1.46;;
14663;SDS011;7419;52.184;5.944;2023-02-03T00:45:15;2.68;;;1.19;;
14663;SDS011;7419;52.184;5.944;2023-02-03T00:46:15;5.48;;;1.28;;
14663;SDS011;7419;52.184;5.944;2023-02-03T00:47:15;2.74;;;1.16;;
14663;SDS011;7419;52.184;5.944;2023-02-03T00:48:15;3.18;;;1.18;;
14663;SDS011;7419;52.184;5.944;2023-02-03T00:49:15;4.50;;;1.30;;
14663;SDS011;7419;52.184;5.944;2023-02-03T00:50:15;6.32;;;1.55;;
14663;SDS011;7419;52.184;5.944;2023-02-03T00:51:15;4.26;;;1.19;;
14663;SDS011;7419;52.184;5.944;2023-02-03T00:52:15;5.20;;;1.50;;
14663;SDS011;7419;52.184;5.944;2023-02-03T00:53:15;3.95;;;1.20;;
14663;SDS011;7419;52.184;5.944;2023-02-03T00:54:15;3.70;;;1.08;;
14663;SDS011;7419;52.184;5.944;2023-02-03T00:55:15;2.54;;;1.04;;
14663;SDS011;7419;52.184;5.944;2023-02-03T00:56:15;2.06;;;1.11;;
14663;SDS011;7419;52.184;5.944;2023-02-03T00:57:15;1.53;;;1.39;;
14663;SDS011;7419;52.184;5.944;2023-02-03T00:58:15;4.70;;;1.25;;
14663;SDS011;7419;52.184;5.944;2023-02-03T00:59:16;5.81;;;1.15;;
14663;SDS011;7419;52.184;5.944;2023-02-03T01:00:16;5.61;;;1.37;;
14663;SDS011;7419;52.184;5.944;2023-02-03T01:01:16;4.31;;;0.98;;
14663;SDS011;7419;52.184;5.944;2023-02-03T01:02:16;3.35;;;1.18;;
14663;SDS011;7419;52.184;5.944;2023-02-03T01:03:16;2.96;;;0.89;;
14663;SDS011;7419;52.184;5.944;2023-02-03T01:04:16;4.23;;;1.03;;
14663;SDS011;7419;52.184;5.944;2023-02-03T01:05:16;2.23;;;1.21;;
14663;SDS011;7419;52.184;5.944;2023-02-03T01:06:17;4.23;;;1.09;;
14663;SDS011;7419;52.184;5.944;2023-02-03T01:07:16;5.53;;;1.44;;
14663;SDS011;7419;52.184;5.944;2023-02-03T01:08:16;1.13;;;0.70;;
14663;SDS011;7419;52.184;5.944;2023-02-03T01:09:16;6.59;;;1.36;;
14663;SDS011;7419;52.184;5.944;2023-02-03T01:10:16;2.68;;;1.19;;
14663;SDS011;7419;52.184;5.944;2023-02-03T01:11:17;1.64;;;1.09;;
14663;SDS011;7419;52.184;5.944;2023-02-03T01:12:16;3.80;;;1.34;;
14663;SDS011;7419;52.184;5.944;2023-02-03T01:13:16;3.33;;;1.30;;
14663;SDS011;7419;52.184;5.944;2023-02-03T01:14:16;4.94;;;0.85;;
14663;SDS011;7419;52.184;5.944;2023-02-03T01:15:17;2.49;;;1.35;;
14663;SDS011;7419;52.184;5.944;2023-02-03T01:16:17;4.11;;;1.62;;
14663;SDS011;7419;52.184;5.944;2023-02-03T01:17:17;1.60;;;0.95;;
14663;SDS011;7419;52.184;5.944;2023-02-03T01:18:17;3.98;;;0.93;;
14663;SDS011;7419;52.184;5.944;2023-02-03T01:19:17;4.81;;;1.20;;
14663;SDS011;7419;52.184;5.944;2023-02-03T01:20:17;3.43;;;0.90;;
14663;SDS011;7419;52.184;5.944;2023-02-03T01:21:18;5.75;;;0.99;;
14663;SDS011;7419;52.184;5.944;2023-02-03T01:22:17;4.62;;;1.53;;
14663;SDS011;7419;52.184;5.944;2023-02-03T01:23:17;3.76;;;1.47;;
14663;SDS011;7419;52.184;5.944;2023-02-03T01:24:17;2.44;;;0.78;;
14663;SDS011;7419;52.184;5.944;2023-02-03T01:25:17;4.11;;;0.92;;
14663;SDS011;7419;52.184;5.944;2023-02-03T01:26:18;2.23;;;1.06;;
14663;SDS011;7419;52.184;5.944;2023-02-03T01:27:17;2.63;;;0.98;;
14663;SDS011;7419;52.184;5.944;2023-02-03T01:28:17;1.51;;;1.15;;
14663;SDS011;7419;52.184;5.944;2023-02-03T01:29:17;0.66;;;0.66;;
14663;SDS011;7419;52.184;5.944;2023-02-03T01:30:17;7.35;;;1.13;;
14663;SDS011;7419;52.184;5.944;2023-02-03T01:31:18;1.91;;;0.78;;
14663;SDS011;7419;52.184;5.944;2023-02-03T01:32:17;0.76;;;0.70;;
14663;SDS011;7419;52.184;5.944;2023-02-03T01:33:17;4.02;;;0.65;;
14663;SDS011;7419;52.184;5.944;2023-02-03T01:34:17;3.63;;;1.18;;
14663;SDS011;7419;52.184;5.944;2023-02-03T01:35:18;3.59;;;1.00;;
14663;SDS011;7419;52.184;5.944;2023-02-03T01:36:18;5.39;;;1.28;;
14663;SDS011;7419;52.184;5.944;2023-02-03T01:37:18;4.58;;;0.82;;
14663;SDS011;7419;52.184;5.944;2023-02-03T01:38:18;5.38;;;0.82;;
14663;SDS011;7419;52.184;5.944;2023-02-03T01:39:18;6.84;;;0.99;;
14663;SDS011;7419;52.184;5.944;2023-02-03T01:40:18;2.40;;;1.17;;
14663;SDS011;7419;52.184;5.944;2023-02-03T01:41:19;2.81;;;0.78;;
14663;SDS011;7419;52.184;5.944;2023-02-03T01:42:18;1.77;;;0.75;;
14663;SDS011;7419;52.184;5.944;2023-02-03T01:43:27;3.14;;;0.86;;
14663;SDS011;7419;52.184;5.944;2023-02-03T01:44:35;3.73;;;1.25;;
14663;SDS011;7419;52.184;5.944;2023-02-03T01:45:18;5.27;;;0.68;;
14663;SDS011;7419;52.184;5.944;2023-02-03T01:46:23;0.72;;;0.47;;
14663;SDS011;7419;52.184;5.944;2023-02-03T01:47:23;3.58;;;1.62;;
14663;SDS011;7419;52.184;5.944;2023-02-03T01:48:18;4.02;;;0.87;;
14663;SDS011;7419;52.184;5.944;2023-02-03T01:49:21;2.86;;;0.87;;
14663;SDS011;7419;52.184;5.944;2023-02-03T01:50:20;1.66;;;0.76;;
14663;SDS011;7419;52.184;5.944;2023-02-03T01:51:19;2.22;;;0.62;;
14663;SDS011;7419;52.184;5.944;2023-02-03T01:52:19;1.07;;;0.82;;
14663;SDS011;7419;52.184;5.944;2023-02-03T01:53:19;4.15;;;0.99;;
14663;SDS011;7419;52.184;5.944;2023-02-03T01:54:20;1.55;;;0.67;;
14663;SDS011;7419;52.184;5.944;2023-02-03T01:55:20;1.96;;;0.67;;
14663;SDS011;7419;52.184;5.944;2023-02-03T01:56:19;2.85;;;0.85;;
14663;SDS011;7419;52.184;5.944;2023-02-03T01:57:20;1.83;;;0.66;;
14663;SDS011;7419;52.184;5.944;2023-02-03T01:58:19;1.29;;;0.79;;
14663;SDS011;7419;52.184;5.944;2023-02-03T01:59:19;3.01;;;0.65;;
14663;SDS011;7419;52.184;5.944;2023-02-03T02:00:19;2.44;;;0.60;;
14663;SDS011;7419;52.184;5.944;2023-02-03T02:01:19;4.37;;;0.92;;
14663;SDS011;7419;52.184;5.944;2023-02-03T02:02:19;0.72;;;0.50;;
14663;SDS011;7419;52.184;5.944;2023-02-03T02:03:20;2.14;;;0.55;;
14663;SDS011;7419;52.184;5.944;2023-02-03T02:04:19;2.00;;;0.92;;
14663;SDS011;7419;52.184;5.944;2023-02-03T02:05:21;6.13;;;1.32;;
14663;SDS011;7419;52.184;5.944;2023-02-03T02:06:19;1.68;;;0.74;;
14663;SDS011;7419;52.184;5.944;2023-02-03T02:07:19;1.59;;;1.04;;
14663;SDS011;7419;52.184;5.944;2023-02-03T02:08:19;2.08;;;0.74;;
14663;SDS011;7419;52.184;5.944;2023-02-03T02:09:20;2.37;;;0.70;;
14663;SDS011;7419;52.184;5.944;2023-02-03T02:10:20;1.98;;;0.78;;
14663;SDS011;7419;52.184;5.944;2023-02-03T02:11:20;2.97;;;0.78;;
14663;SDS011;7419;52.184;5.944;2023-02-03T02:12:20;3.99;;;1.12;;
14663;SDS011;7419;52.184;5.944;2023-02-03T02:13:20;4.04;;;0.89;;
14663;SDS011;7419;52.184;5.944;2023-02-03T02:14:20;3.42;;;1.12;;
14663;SDS011;7419;52.184;5.944;2023-02-03T02:15:20;1.44;;;0.63;;
14663;SDS011;7419;52.184;5.944;2023-02-03T02:16:21;5.94;;;0.65;;
14663;SDS011;7419;52.184;5.944;2023-02-03T02:17:25;3.45;;;0.67;;
14663;SDS011;7419;52.184;5.944;2023-02-03T02:18:23;4.80;;;0.76;;
14663;SDS011;7419;52.184;5.944;2023-02-03T02:19:27;1.75;;;0.82;;
14663;SDS011;7419;52.184;5.944;2023-02-03T02:20:28;4.16;;;0.95;;
14663;SDS011;7419;52.184;5.944;2023-02-03T02:21:23;2.49;;;0.80;;
14663;SDS011;7419;52.184;5.944;2023-02-03T02:22:21;1.19;;;0.75;;
14663;SDS011;7419;52.184;5.944;2023-02-03T02:23:26;3.72;;;0.59;;
14663;SDS011;7419;52.184;5.944;2023-02-03T02:25:27;1.38;;;0.56;;
14663;SDS011;7419;52.184;5.944;2023-02-03T02:26:26;1.81;;;0.75;;
14663;SDS011;7419;52.184;5.944;2023-02-03T02:27:30;2.46;;;0.82;;
14663;SDS011;7419;52.184;5.944;2023-02-03T02:28:26;1.98;;;0.70;;
14663;SDS011;7419;52.184;5.944;2023-02-03T02:29:42;2.68;;;0.89;;
14663;SDS011;7419;52.184;5.944;2023-02-03T02:30:29;4.87;;;0.75;;
14663;SDS011;7419;52.184;5.944;2023-02-03T02:32:25;1.80;;;0.81;;
14663;SDS011;7419;52.184;5.944;2023-02-03T02:33:25;2.24;;;1.00;;
14663;SDS011;7419;52.184;5.944;2023-02-03T02:34:22;1.07;;;0.69;;
14663;SDS011;7419;52.184;5.944;2023-02-03T02:35:26;3.10;;;0.68;;
14663;SDS011;7419;52.184;5.944;2023-02-03T02:36:23;2.21;;;0.41;;
14663;SDS011;7419;52.184;5.944;2023-02-03T02:37:23;4.32;;;0.73;;
14663;SDS011;7419;52.184;5.944;2023-02-03T02:38:24;2.98;;;0.62;;
14663;SDS011;7419;52.184;5.944;2023-02-03T02:39:22;9.02;;;0.75;;
14663;SDS011;7419;52.184;5.944;2023-02-03T02:40:22;2.73;;;1.01;;
14663;SDS011;7419;52.184;5.944;2023-02-03T02:41:22;3.81;;;0.65;;
14663;SDS011;7419;52.184;5.944;2023-02-03T02:42:22;2.25;;;0.73;;
14663;SDS011;7419;52.184;5.944;2023-02-03T02:43:23;5.07;;;1.01;;
14663;SDS011;7419;52.184;5.944;2023-02-03T02:44:22;2.44;;;0.82;;
14663;SDS011;7419;52.184;5.944;2023-02-03T02:45:23;1.66;;;0.58;;
14663;SDS011;7419;52.184;5.944;2023-02-03T02:46:23;3.82;;;0.71;;
14663;SDS011;7419;52.184;5.944;2023-02-03T02:47:22;4.81;;;0.51;;
14663;SDS011;7419;52.184;5.944;2023-02-03T02:48:23;1.46;;;0.62;;
14663;SDS011;7419;52.184;5.944;2023-02-03T02:49:24;4.66;;;0.42;;
14663;SDS011;7419;52.184;5.944;2023-02-03T02:50:22;1.30;;;0.69;;
14663;SDS011;7419;52.184;5.944;2023-02-03T02:51:22;5.50;;;1.16;;
14663;SDS011;7419;52.184;5.944;2023-02-03T02:52:22;2.19;;;0.43;;
14663;SDS011;7419;52.184;5.944;2023-02-03T02:53:23;4.98;;;0.74;;
14663;SDS011;7419;52.184;5.944;2023-02-03T02:54:23;0.32;;;0.20;;
14663;SDS011;7419;52.184;5.944;2023-02-03T02:55:23;6.14;;;0.95;;
14663;SDS011;7419;52.184;5.944;2023-02-03T02:56:22;3.61;;;0.81;;
14663;SDS011;7419;52.184;5.944;2023-02-03T02:57:23;2.61;;;0.46;;
14663;SDS011;7419;52.184;5.944;2023-02-03T02:58:23;3.23;;;0.48;;
14663;SDS011;7419;52.184;5.944;2023-02-03T02:59:22;2.43;;;0.53;;
14663;SDS011;7419;52.184;5.944;2023-02-03T03:00:23;1.60;;;0.31;;
14663;SDS011;7419;52.184;5.944;2023-02-03T03:01:23;0.96;;;0.65;;
14663;SDS011;7419;52.184;5.944;2023-02-03T03:02:30;2.34;;;0.96;;
14663;SDS011;7419;52.184;5.944;2023-02-03T03:03:23;1.90;;;0.52;;
14663;SDS011;7419;52.184;5.944;2023-02-03T03:04:23;1.83;;;0.35;;
14663;SDS011;7419;52.184;5.944;2023-02-03T03:05:23;0.38;;;0.38;;
14663;SDS011;7419;52.184;5.944;2023-02-03T03:06:23;3.18;;;0.78;;
14663;SDS011;7419;52.184;5.944;2023-02-03T03:07:23;2.63;;;0.30;;
14663;SDS011;7419;52.184;5.944;2023-02-03T03:08:24;3.50;;;0.52;;
14663;SDS011;7419;52.184;5.944;2023-02-03T03:09:24;2.77;;;0.59;;
14663;SDS011;7419;52.184;5.944;2023-02-03T03:10:24;1.02;;;0.73;;
14663;SDS011;7419;52.184;5.944;2023-02-03T03:11:23;1.90;;;1.04;;
14663;SDS011;7419;52.184;5.944;2023-02-03T03:12:23;0.57;;;0.48;;
14663;SDS011;7419;52.184;5.944;2023-02-03T03:13:31;2.02;;;0.48;;
14663;SDS011;7419;52.184;5.944;2023-02-03T03:14:24;3.67;;;0.63;;
14663;SDS011;7419;52.184;5.944;2023-02-03T03:15:24;2.83;;;0.46;;
14663;SDS011;7419;52.184;5.944;2023-02-03T03:16:25;2.04;;;0.70;;
14663;SDS011;7419;52.184;5.944;2023-02-03T03:17:24;3.36;;;0.64;;
14663;SDS011;7419;52.184;5.944;2023-02-03T03:18:24;4.70;;;0.48;;
14663;SDS011;7419;52.184;5.944;2023-02-03T03:19:24;2.35;;;0.39;;
14663;SDS011;7419;52.184;5.944;2023-02-03T03:20:24;3.54;;;0.74;;
14663;SDS011;7419;52.184;5.944;2023-02-03T03:21:24;2.21;;;0.55;;
14663;SDS011;7419;52.184;5.944;2023-02-03T03:22:24;2.55;;;0.50;;
14663;SDS011;7419;52.184;5.944;2023-02-03T03:23:25;1.06;;;0.50;;
14663;SDS011;7419;52.184;5.944;2023-02-03T03:24:25;2.44;;;0.45;;
14663;SDS011;7419;52.184;5.944;2023-02-03T03:25:25;1.81;;;0.37;;
14663;SDS011;7419;52.184;5.944;2023-02-03T03:26:25;3.97;;;0.57;;
14663;SDS011;7419;52.184;5.944;2023-02-03T03:27:25;1.79;;;0.39;;
14663;SDS011;7419;52.184;5.944;2023-02-03T03:28:29;0.58;;;0.30;;
14663;SDS011;7419;52.184;5.944;2023-02-03T03:29:25;3.49;;;0.43;;
14663;SDS011;7419;52.184;5.944;2023-02-03T03:30:25;6.18;;;0.81;;
14663;SDS011;7419;52.184;5.944;2023-02-03T03:31:24;1.40;;;0.57;;
14663;SDS011;7419;52.184;5.944;2023-02-03T03:32:24;2.49;;;0.45;;
14663;SDS011;7419;52.184;5.944;2023-02-03T03:33:24;1.63;;;0.33;;
14663;SDS011;7419;52.184;5.944;2023-02-03T03:34:24;2.70;;;0.36;;
14663;SDS011;7419;52.184;5.944;2023-02-03T03:35:27;1.03;;;0.25;;
14663;SDS011;7419;52.184;5.944;2023-02-03T03:36:25;1.79;;;0.54;;
14663;SDS011;7419;52.184;5.944;2023-02-03T03:37:27;1.98;;;0.94;;
14663;SDS011;7419;52.184;5.944;2023-02-03T03:38:26;2.13;;;0.58;;
14663;SDS011;7419;52.184;5.944;2023-02-03T03:39:26;2.51;;;0.60;;
14663;SDS011;7419;52.184;5.944;2023-02-03T03:40:25;2.11;;;0.45;;
14663;SDS011;7419;52.184;5.944;2023-02-03T03:41:26;2.44;;;0.41;;
14663;SDS011;7419;52.184;5.944;2023-02-03T03:42:26;1.36;;;0.35;;
14663;SDS011;7419;52.184;5.944;2023-02-03T03:43:26;0.40;;;0.35;;
14663;SDS011;7419;52.184;5.944;2023-02-03T03:44:26;2.34;;;0.53;;
14663;SDS011;7419;52.184;5.944;2023-02-03T03:45:26;2.21;;;0.81;;
14663;SDS011;7419;52.184;5.944;2023-02-03T03:46:26;1.31;;;0.43;;
14663;SDS011;7419;52.184;5.944;2023-02-03T03:47:26;0.37;;;0.24;;
14663;SDS011;7419;52.184;5.944;2023-02-03T03:48:26;1.43;;;0.43;;
14663;SDS011;7419;52.184;5.944;2023-02-03T03:49:25;0.76;;;0.24;;
14663;SDS011;7419;52.184;5.944;2023-02-03T03:50:27;1.30;;;0.50;;
14663;SDS011;7419;52.184;5.944;2023-02-03T03:51:26;2.08;;;0.28;;
14663;SDS011;7419;52.184;5.944;2023-02-03T03:52:26;1.68;;;0.38;;
14663;SDS011;7419;52.184;5.944;2023-02-03T03:53:26;6.73;;;0.52;;
14663;SDS011;7419;52.184;5.944;2023-02-03T03:54:25;0.55;;;0.24;;
14663;SDS011;7419;52.184;5.944;2023-02-03T03:55:25;0.70;;;0.49;;
14663;SDS011;7419;52.184;5.944;2023-02-03T03:56:26;1.44;;;0.45;;
14663;SDS011;7419;52.184;5.944;2023-02-03T03:57:26;1.30;;;0.55;;
14663;SDS011;7419;52.184;5.944;2023-02-03T03:58:26;0.82;;;0.17;;
14663;SDS011;7419;52.184;5.944;2023-02-03T03:59:27;1.44;;;0.33;;
14663;SDS011;7419;52.184;5.944;2023-02-03T04:00:26;1.31;;;0.51;;
14663;SDS011;7419;52.184;5.944;2023-02-03T04:01:25;1.20;;;0.39;;
14663;SDS011;7419;52.184;5.944;2023-02-03T04:02:26;3.09;;;0.41;;
14663;SDS011;7419;52.184;5.944;2023-02-03T04:03:27;1.13;;;0.35;;
14663;SDS011;7419;52.184;5.944;2023-02-03T04:04:26;2.72;;;0.58;;
14663;SDS011;7419;52.184;5.944;2023-02-03T04:05:26;2.21;;;0.50;;
14663;SDS011;7419;52.184;5.944;2023-02-03T04:06:26;2.08;;;0.45;;
14663;SDS011;7419;52.184;5.944;2023-02-03T04:07:37;1.77;;;0.17;;
14663;SDS011;7419;52.184;5.944;2023-02-03T04:08:26;1.49;;;0.49;;
14663;SDS011;7419;52.184;5.944;2023-02-03T04:09:27;5.17;;;0.84;;
14663;SDS011;7419;52.184;5.944;2023-02-03T04:10:28;3.72;;;0.37;;
14663;SDS011;7419;52.184;5.944;2023-02-03T04:11:26;0.35;;;0.26;;
14663;SDS011;7419;52.184;5.944;2023-02-03T04:12:26;3.64;;;0.74;;
14663;SDS011;7419;52.184;5.944;2023-02-03T04:13:26;3.75;;;0.33;;
14663;SDS011;7419;52.184;5.944;2023-02-03T04:14:26;2.93;;;0.49;;
14663;SDS011;7419;52.184;5.944;2023-02-03T04:15:26;4.76;;;0.64;;
14663;SDS011;7419;52.184;5.944;2023-02-03T04:16:26;2.75;;;0.20;;
14663;SDS011;7419;52.184;5.944;2023-02-03T04:17:26;0.88;;;0.38;;
14663;SDS011;7419;52.184;5.944;2023-02-03T04:18:26;2.32;;;0.85;;
14663;SDS011;7419;52.184;5.944;2023-02-03T04:19:26;4.58;;;0.49;;
14663;SDS011;7419;52.184;5.944;2023-02-03T04:20:27;3.48;;;0.62;;
14663;SDS011;7419;52.184;5.944;2023-02-03T04:21:27;1.60;;;0.27;;
14663;SDS011;7419;52.184;5.944;2023-02-03T04:22:27;1.57;;;0.85;;
14663;SDS011;7419;52.184;5.944;2023-02-03T04:23:27;3.38;;;0.81;;
14663;SDS011;7419;52.184;5.944;2023-02-03T04:24:27;1.46;;;0.62;;
14663;SDS011;7419;52.184;5.944;2023-02-03T04:25:27;2.42;;;0.34;;
14663;SDS011;7419;52.184;5.944;2023-02-03T04:26:27;3.35;;;0.56;;
14663;SDS011;7419;52.184;5.944;2023-02-03T04:27:27;0.95;;;0.56;;
14663;SDS011;7419;52.184;5.944;2023-02-03T04:28:27;1.65;;;0.76;;
14663;SDS011;7419;52.184;5.944;2023-02-03T04:29:27;2.38;;;0.35;;
14663;SDS011;7419;52.184;5.944;2023-02-03T04:30:27;3.55;;;0.56;;
14663;SDS011;7419;52.184;5.944;2023-02-03T04:31:27;3.06;;;0.56;;
14663;SDS011;7419;52.184;5.944;2023-02-03T04:32:27;5.72;;;0.66;;
14663;SDS011;7419;52.184;5.944;2023-02-03T04:33:27;0.34;;;0.18;;
14663;SDS011;7419;52.184;5.944;2023-02-03T04:34:27;0.97;;;0.47;;
14663;SDS011;7419;52.184;5.944;2023-02-03T04:35:28;0.59;;;0.38;;
14663;SDS011;7419;52.184;5.944;2023-02-03T04:36:28;2.52;;;0.33;;
14663;SDS011;7419;52.184;5.944;2023-02-03T04:37:28;1.10;;;0.69;;
14663;SDS011;7419;52.184;5.944;2023-02-03T04:38:28;0.83;;;0.59;;
14663;SDS011;7419;52.184;5.944;2023-02-03T04:39:28;1.70;;;0.35;;
14663;SDS011;7419;52.184;5.944;2023-02-03T04:40:28;1.01;;;0.51;;
14663;SDS011;7419;52.184;5.944;2023-02-03T04:41:28;2.67;;;0.37;;
14663;SDS011;7419;52.184;5.944;2023-02-03T04:42:28;3.09;;;0.42;;
14663;SDS011;7419;52.184;5.944;2023-02-03T04:43:28;1.84;;;0.56;;
14663;SDS011;7419;52.184;5.944;2023-02-03T04:44:28;1.21;;;0.16;;
14663;SDS011;7419;52.184;5.944;2023-02-03T04:45:28;2.17;;;0.30;;
14663;SDS011;7419;52.184;5.944;2023-02-03T04:46:28;1.44;;;0.36;;
14663;SDS011;7419;52.184;5.944;2023-02-03T04:47:28;4.37;;;0.52;;
14663;SDS011;7419;52.184;5.944;2023-02-03T04:48:28;3.67;;;0.68;;
14663;SDS011;7419;52.184;5.944;2023-02-03T04:49:28;5.51;;;0.46;;
14663;SDS011;7419;52.184;5.944;2023-02-03T04:50:28;1.53;;;0.40;;
14663;SDS011;7419;52.184;5.944;2023-02-03T04:51:28;2.37;;;0.48;;
14663;SDS011;7419;52.184;5.944;2023-02-03T04:52:28;1.27;;;0.36;;
14663;SDS011;7419;52.184;5.944;2023-02-03T04:53:29;0.26;;;0.12;;
14663;SDS011;7419;52.184;5.944;2023-02-03T04:54:29;0.62;;;0.35;;
14663;SDS011;7419;52.184;5.944;2023-02-03T04:55:29;1.86;;;0.41;;
14663;SDS011;7419;52.184;5.944;2023-02-03T04:56:29;2.74;;;0.32;;
14663;SDS011;7419;52.184;5.944;2023-02-03T04:57:29;1.57;;;0.34;;
14663;SDS011;7419;52.184;5.944;2023-02-03T04:58:29;1.46;;;0.38;;
14663;SDS011;7419;52.184;5.944;2023-02-03T04:59:29;2.25;;;0.42;;
14663;SDS011;7419;52.184;5.944;2023-02-03T05:00:29;2.44;;;0.39;;
14663;SDS011;7419;52.184;5.944;2023-02-03T05:01:29;1.55;;;0.54;;
14663;SDS011;7419;52.184;5.944;2023-02-03T05:02:29;0.69;;;0.25;;
14663;SDS011;7419;52.184;5.944;2023-02-03T05:03:29;1.44;;;0.42;;
14663;SDS011;7419;52.184;5.944;2023-02-03T05:04:29;1.59;;;0.46;;
14663;SDS011;7419;52.184;5.944;2023-02-03T05:05:29;0.93;;;0.30;;
14663;SDS011;7419;52.184;5.944;2023-02-03T05:06:29;0.56;;;0.39;;
14663;SDS011;7419;52.184;5.944;2023-02-03T05:07:29;0.89;;;0.54;;
14663;SDS011;7419;52.184;5.944;2023-02-03T05:08:30;1.47;;;0.38;;
14663;SDS011;7419;52.184;5.944;2023-02-03T05:09:30;1.92;;;0.22;;
14663;SDS011;7419;52.184;5.944;2023-02-03T05:10:30;1.34;;;0.34;;
14663;SDS011;7419;52.184;5.944;2023-02-03T05:11:30;1.23;;;0.53;;
14663;SDS011;7419;52.184;5.944;2023-02-03T05:12:30;1.27;;;0.24;;
14663;SDS011;7419;52.184;5.944;2023-02-03T05:13:30;0.86;;;0.23;;
14663;SDS011;7419;52.184;5.944;2023-02-03T05:14:30;1.52;;;0.33;;
14663;SDS011;7419;52.184;5.944;2023-02-03T05:15:30;0.68;;;0.25;;
14663;SDS011;7419;52.184;5.944;2023-02-03T05:16:30;1.09;;;0.21;;
14663;SDS011;7419;52.184;5.944;2023-02-03T05:17:30;2.14;;;0.50;;
14663;SDS011;7419;52.184;5.944;2023-02-03T05:18:30;0.72;;;0.39;;
14663;SDS011;7419;52.184;5.944;2023-02-03T05:19:30;1.47;;;0.33;;
14663;SDS011;7419;52.184;5.944;2023-02-03T05:20:30;0.15;;;0.15;;
14663;SDS011;7419;52.184;5.944;2023-02-03T05:21:30;2.53;;;0.23;;
14663;SDS011;7419;52.184;5.944;2023-02-03T05:22:30;2.85;;;0.29;;
14663;SDS011;7419;52.184;5.944;2023-02-03T05:23:31;2.10;;;0.44;;
14663;SDS011;7419;52.184;5.944;2023-02-03T05:24:31;0.80;;;0.14;;
14663;SDS011;7419;52.184;5.944;2023-02-03T05:25:31;1.30;;;0.30;;
14663;SDS011;7419;52.184;5.944;2023-02-03T05:26:31;1.83;;;0.37;;
14663;SDS011;7419;52.184;5.944;2023-02-03T05:27:31;1.24;;;0.32;;
14663;SDS011;7419;52.184;5.944;2023-02-03T05:28:31;4.90;;;0.40;;
14663;SDS011;7419;52.184;5.944;2023-02-03T05:29:31;0.59;;;0.20;;
14663;SDS011;7419;52.184;5.944;2023-02-03T05:30:31;0.44;;;0.21;;
14663;SDS011;7419;52.184;5.944;2023-02-03T05:31:31;1.19;;;0.25;;
14663;SDS011;7419;52.184;5.944;2023-02-03T05:32:31;1.00;;;0.43;;
14663;SDS011;7419;52.184;5.944;2023-02-03T05:33:31;7.68;;;0.51;;
14663;SDS011;7419;52.184;5.944;2023-02-03T05:34:31;4.31;;;0.51;;
14663;SDS011;7419;52.184;5.944;2023-02-03T05:35:31;2.05;;;0.37;;
14663;SDS011;7419;52.184;5.944;2023-02-03T05:36:31;1.26;;;0.25;;
14663;SDS011;7419;52.184;5.944;2023-02-03T05:37:31;3.82;;;0.79;;
14663;SDS011;7419;52.184;5.944;2023-02-03T05:38:31;6.12;;;0.66;;
14663;SDS011;7419;52.184;5.944;2023-02-03T05:39:31;1.91;;;0.33;;
14663;SDS011;7419;52.184;5.944;2023-02-03T05:40:32;0.76;;;0.71;;
14663;SDS011;7419;52.184;5.944;2023-02-03T05:41:32;3.79;;;0.36;;
14663;SDS011;7419;52.184;5.944;2023-02-03T05:42:32;1.77;;;0.43;;
14663;SDS011;7419;52.184;5.944;2023-02-03T05:43:32;2.80;;;0.81;;
14663;SDS011;7419;52.184;5.944;2023-02-03T05:44:32;3.74;;;0.68;;
14663;SDS011;7419;52.184;5.944;2023-02-03T05:45:32;1.04;;;0.42;;
14663;SDS011;7419;52.184;5.944;2023-02-03T05:46:32;1.14;;;0.53;;
14663;SDS011;7419;52.184;5.944;2023-02-03T05:47:32;0.87;;;0.55;;
14663;SDS011;7419;52.184;5.944;2023-02-03T05:48:32;1.98;;;0.76;;
14663;SDS011;7419;52.184;5.944;2023-02-03T05:49:32;0.63;;;0.33;;
14663;SDS011;7419;52.184;5.944;2023-02-03T05:50:33;1.90;;;0.36;;
14663;SDS011;7419;52.184;5.944;2023-02-03T05:51:32;1.93;;;0.66;;
14663;SDS011;7419;52.184;5.944;2023-02-03T05:52:32;2.12;;;0.48;;
14663;SDS011;7419;52.184;5.944;2023-02-03T05:53:32;0.44;;;0.16;;
14663;SDS011;7419;52.184;5.944;2023-02-03T05:54:32;0.73;;;0.54;;
14663;SDS011;7419;52.184;5.944;2023-02-03T05:55:33;6.20;;;0.48;;
14663;SDS011;7419;52.184;5.944;2023-02-03T05:56:33;2.80;;;0.71;;
14663;SDS011;7419;52.184;5.944;2023-02-03T05:57:33;0.77;;;0.44;;
14663;SDS011;7419;52.184;5.944;2023-02-03T05:58:33;3.12;;;0.42;;
14663;SDS011;7419;52.184;5.944;2023-02-03T05:59:33;2.25;;;0.28;;
14663;SDS011;7419;52.184;5.944;2023-02-03T06:00:34;3.05;;;0.30;;
14663;SDS011;7419;52.184;5.944;2023-02-03T06:01:33;0.20;;;0.10;;
14663;SDS011;7419;52.184;5.944;2023-02-03T06:02:33;0.36;;;0.36;;
14663;SDS011;7419;52.184;5.944;2023-02-03T06:03:33;0.84;;;0.36;;
14663;SDS011;7419;52.184;5.944;2023-02-03T06:04:33;2.24;;;0.67;;
14663;SDS011;7419;52.184;5.944;2023-02-03T06:05:34;0.79;;;0.12;;
14663;SDS011;7419;52.184;5.944;2023-02-03T06:06:33;1.89;;;0.65;;
14663;SDS011;7419;52.184;5.944;2023-02-03T06:07:33;3.70;;;0.60;;
14663;SDS011;7419;52.184;5.944;2023-02-03T06:08:33;3.77;;;0.57;;
14663;SDS011;7419;52.184;5.944;2023-02-03T06:09:33;3.27;;;0.70;;